Time;durP1;ratioP1;P1;durP2;ratioP2;P2;SDS_P1;SDS_P2;PMS_P1;PMS_P2;Temp;Humidity;BMP_temperature;BMP_pressure;BME280_temperature;BME280_humidity;BME280_pressure;Samples;Min_cycle;Max_cycle;Signal;HPM_P1;HPM_P2
2022/12/01 00:01:16;;;;;;;39.38;19.27;;;7.90;99.90;;;;;;4127117;28;20038;-68
2022/12/01 00:03:17;;;;;;;32.22;17.95;;;8.00;99.90;;;;;;4125259;28;20108;-68
2022/12/01 00:05:17;;;;;;;38.13;19.13;;;8.00;99.90;;;;;;4125737;28;20488;-69
2022/12/01 00:07:18;;;;;;;38.00;19.33;;;8.00;99.90;;;;;;4126665;28;25502;-68
2022/12/01 00:11:38;;;;;;;36.97;18.90;;;8.10;99.90;;;;;;4126196;28;20076;-68
2022/12/01 00:13:38;;;;;;;37.83;19.17;;;8.10;99.90;;;;;;4129440;28;20045;-68
2022/12/01 00:15:39;;;;;;;33.90;17.48;;;8.10;99.90;;;;;;4128829;28;20046;-68
2022/12/01 00:17:42;;;;;;;37.65;18.60;;;8.10;99.90;;;;;;4129412;28;20153;-68
2022/12/01 00:19:43;;;;;;;39.40;19.60;;;8.00;99.90;;;;;;4128986;28;20169;-68
2022/12/01 00:21:45;;;;;;;36.05;18.17;;;8.00;99.90;;;;;;4128342;28;20050;-68
2022/12/01 00:23:47;;;;;;;44.80;21.13;;;8.10;99.90;;;;;;4129266;28;20050;-68
2022/12/01 00:25:48;;;;;;;39.47;20.48;;;8.10;99.90;;;;;;4128338;28;20042;-68
2022/12/01 00:27:50;;;;;;;38.90;19.15;;;8.10;99.90;;;;;;4129494;28;20042;-68
2022/12/01 00:29:50;;;;;;;42.45;19.40;;;8.10;99.90;;;;;;4129832;28;20497;-68
2022/12/01 00:31:51;;;;;;;41.70;20.08;;;8.10;99.90;;;;;;4128282;28;20051;-68
2022/12/01 00:33:51;;;;;;;44.15;20.63;;;8.10;99.90;;;;;;4127340;28;20053;-68
2022/12/01 00:36:00;;;;;;;38.35;19.60;;;8.10;99.90;;;;;;4128742;28;20034;-68
2022/12/01 00:38:00;;;;;;;36.35;19.17;;;8.10;99.90;;;;;;4122916;28;20038;-69
2022/12/01 00:40:02;;;;;;;46.20;20.73;;;8.10;99.90;;;;;;4129757;28;20130;-69
2022/12/01 00:42:03;;;;;;;48.88;21.20;;;8.10;99.90;;;;;;4129023;28;20038;-68
2022/12/01 00:44:04;;;;;;;46.78;22.02;;;8.10;99.90;;;;;;4129595;28;20490;-68
2022/12/01 00:46:04;;;;;;;40.10;20.35;;;8.10;99.90;;;;;;4120785;28;20046;-68
2022/12/01 00:48:05;;;;;;;44.95;19.98;;;8.10;99.90;;;;;;4121756;28;20485;-69
2022/12/01 00:50:06;;;;;;;46.10;21.90;;;8.10;99.90;;;;;;4129137;28;20488;-69
2022/12/01 00:52:07;;;;;;;46.78;21.92;;;8.20;99.90;;;;;;4128642;28;20870;-68
2022/12/01 00:54:07;;;;;;;48.00;21.88;;;8.20;99.90;;;;;;4129630;28;20038;-69
2022/12/01 00:56:08;;;;;;;49.45;21.83;;;8.20;99.90;;;;;;4128711;28;20038;-69
2022/12/01 00:58:10;;;;;;;49.47;21.52;;;8.10;99.90;;;;;;4129965;28;20113;-68
2022/12/01 01:00:11;;;;;;;49.60;20.92;;;8.10;99.90;;;;;;4128620;28;20528;-70
2022/12/01 01:02:11;;;;;;;40.97;19.73;;;8.00;99.90;;;;;;4129091;28;20034;-69
2022/12/01 01:04:12;;;;;;;39.88;20.45;;;8.10;99.90;;;;;;4127824;28;20049;-68
2022/12/01 01:06:13;;;;;;;51.88;21.90;;;8.10;99.90;;;;;;4129904;28;20046;-69
2022/12/01 01:08:14;;;;;;;47.40;21.13;;;8.10;99.90;;;;;;4129475;28;20054;-69
2022/12/01 01:10:14;;;;;;;44.33;20.33;;;8.10;99.90;;;;;;4128666;28;20093;-67
2022/12/01 01:12:15;;;;;;;42.92;20.20;;;8.10;99.90;;;;;;4128330;28;20042;-68
2022/12/01 01:14:15;;;;;;;41.72;19.77;;;8.10;99.90;;;;;;4128816;28;20133;-68
2022/12/01 01:16:21;;;;;;;49.72;21.38;;;8.10;99.90;;;;;;4128621;28;20050;-68
2022/12/01 01:18:21;;;;;;;48.33;22.17;;;8.10;99.90;;;;;;4132288;28;20031;-68
2022/12/01 01:20:22;;;;;;;53.35;24.35;;;8.20;99.90;;;;;;4127209;28;20485;-69
2022/12/01 01:22:22;;;;;;;57.83;23.80;;;8.10;99.90;;;;;;4128881;28;20046;-68
2022/12/01 01:24:23;;;;;;;57.35;23.42;;;8.10;99.90;;;;;;4128518;28;20350;-68
2022/12/01 01:26:27;;;;;;;48.67;21.98;;;8.10;99.90;;;;;;4127927;28;20049;-69
2022/12/01 01:28:29;;;;;;;60.63;25.90;;;8.20;99.90;;;;;;4133086;28;20097;-68
2022/12/01 01:30:30;;;;;;;56.88;25.20;;;8.10;99.90;;;;;;4127408;28;20104;-68
2022/12/01 01:32:30;;;;;;;67.93;25.65;;;8.10;99.90;;;;;;4120204;28;20046;-68
2022/12/01 01:34:31;;;;;;;58.90;24.25;;;8.10;99.90;;;;;;4128394;28;20038;-69
2022/12/01 01:36:32;;;;;;;50.47;22.05;;;8.10;99.90;;;;;;4128531;28;20126;-69
2022/12/01 01:38:33;;;;;;;58.47;24.05;;;8.10;99.90;;;;;;4128854;28;20042;-68
2022/12/01 01:40:42;;;;;;;52.55;21.92;;;8.10;99.90;;;;;;4126435;28;20049;-68
2022/12/01 01:42:42;;;;;;;54.80;22.75;;;8.10;99.90;;;;;;4128258;28;20038;-68
2022/12/01 01:44:56;;;;;;;61.33;24.55;;;8.10;99.90;;;;;;4128509;28;20046;-69
2022/12/01 01:46:57;;;;;;;65.32;24.85;;;8.10;99.90;;;;;;4127157;28;20485;-68
2022/12/01 01:49:07;;;;;;;62.65;25.20;;;8.10;99.90;;;;;;4127993;28;20104;-67
2022/12/01 01:51:10;;;;;;;58.70;22.52;;;8.10;99.90;;;;;;4121756;28;20057;-68
2022/12/01 01:53:13;;;;;;;56.53;24.27;;;8.10;99.90;;;;;;4121974;28;20488;-68
2022/12/01 01:55:15;;;;;;;66.70;25.33;;;8.10;99.90;;;;;;4122705;28;20042;-68
2022/12/01 01:57:28;;;;;;;59.67;24.55;;;8.10;99.90;;;;;;4121203;28;20390;-69
2022/12/01 01:59:41;;;;;;;66.13;24.65;;;8.10;99.90;;;;;;4122793;28;20042;-69
2022/12/01 02:01:42;;;;;;;55.85;22.75;;;8.10;99.90;;;;;;4126264;28;20026;-68
2022/12/01 02:03:44;;;;;;;62.10;23.85;;;8.10;99.90;;;;;;4125662;28;20037;-68
2022/12/01 02:05:45;;;;;;;58.23;23.47;;;8.10;99.90;;;;;;4118978;28;20045;-68
2022/12/01 02:07:46;;;;;;;56.40;22.95;;;8.10;99.90;;;;;;4125353;28;20301;-68
2022/12/01 02:09:47;;;;;;;58.53;25.67;;;8.10;99.90;;;;;;4127682;28;20038;-68
2022/12/01 02:12:05;;;;;;;62.95;26.35;;;8.10;99.90;;;;;;4124247;28;20053;-69
2022/12/01 02:14:17;;;;;;;64.93;25.25;;;8.10;99.90;;;;;;4123878;28;20102;-69
2022/12/01 02:16:42;;;;;;;64.88;25.65;;;8.10;99.90;;;;;;4104801;28;20121;-69
2022/12/01 02:19:03;;;;;;;80.00;28.85;;;8.10;99.90;;;;;;4123319;28;20110;-68
2022/12/01 02:21:15;;;;;;;74.55;28.60;;;8.10;99.90;;;;;;4123389;28;20474;-68
2022/12/01 02:23:25;;;;;;;;;;;8.00;99.90;;;;;;4101948;28;20457;-68
2022/12/01 02:25:44;;;;;;;66.55;24.88;;;8.00;99.90;;;;;;4120656;28;19947;-68
2022/12/01 02:28:15;;;;;;;61.03;24.25;;;8.00;99.90;;;;;;4122084;28;20496;-68
2022/12/01 02:30:25;;;;;;;56.25;22.83;;;8.00;99.90;;;;;;4123732;28;20043;-68
2022/12/01 02:32:45;;;;;;;67.38;27.23;;;8.00;99.90;;;;;;4125525;28;20049;-68
2022/12/01 02:34:59;;;;;;;57.92;23.63;;;8.00;99.90;;;;;;4138448;28;20142;-68
2022/12/01 02:37:18;;;;;;;63.67;23.48;;;8.00;99.90;;;;;;4139264;28;20495;-69
2022/12/01 02:39:48;;;;;;;57.63;23.88;;;8.00;99.90;;;;;;4139915;28;20384;-68
2022/12/01 02:42:00;;;;;;;55.10;21.45;;;8.00;99.90;;;;;;4131774;28;20030;-68
2022/12/01 02:44:28;;;;;;;59.90;23.93;;;8.00;99.90;;;;;;4138985;28;20076;-68
2022/12/01 02:46:37;;;;;;;64.35;24.58;;;8.00;99.90;;;;;;4135072;28;20408;-68
2022/12/01 02:48:42;;;;;;;69.00;25.10;;;7.90;99.90;;;;;;4138806;28;20038;-68
2022/12/01 02:50:45;;;;;;;56.60;21.77;;;7.90;99.90;;;;;;4139906;28;20038;-68
2022/12/01 02:52:46;;;;;;;56.10;23.55;;;7.90;99.90;;;;;;4138205;28;20120;-68
2022/12/01 02:54:47;;;;;;;57.70;23.27;;;7.90;99.90;;;;;;4143190;28;20045;-68
2022/12/01 02:56:51;;;;;;;65.72;24.60;;;7.90;99.90;;;;;;4137338;28;20046;-68
2022/12/01 02:58:52;;;;;;;61.78;24.15;;;8.00;99.90;;;;;;4138697;28;20034;-68
2022/12/01 03:01:29;;;;;;;62.28;24.70;;;7.90;99.90;;;;;;4144280;28;20030;-68
2022/12/01 03:04:01;;;;;;;60.63;25.35;;;7.90;99.90;;;;;;4100202;28;20492;-68
2022/12/01 03:06:35;;;;;;;69.38;25.08;;;7.90;99.90;;;;;;4128532;28;20424;-68
2022/12/01 03:08:54;;;;;;;74.88;26.27;;;7.90;99.90;;;;;;4143554;28;20135;-68
2022/12/01 03:10:56;;;;;;;58.10;23.73;;;7.70;99.90;;;;;;4142017;28;20420;-68
2022/12/01 03:13:25;;;;;;;65.40;25.65;;;7.80;99.90;;;;;;4143240;28;20041;-68
2022/12/01 03:15:57;;;;;;;57.40;24.05;;;7.80;99.90;;;;;;4143338;28;20042;-69
2022/12/01 03:18:15;;;;;;;59.42;22.73;;;7.80;99.90;;;;;;4114992;28;20038;-68
2022/12/01 03:20:47;;;;;;;56.60;23.38;;;7.90;99.90;;;;;;4139746;28;20034;-69
2022/12/01 03:22:52;;;;;;;53.15;21.75;;;7.80;99.90;;;;;;4139794;28;20047;-69
2022/12/01 03:24:55;;;;;;;54.88;22.48;;;7.70;99.90;;;;;;4136767;28;21198;-68
2022/12/01 03:26:59;;;;;;;55.90;22.10;;;7.70;99.90;;;;;;4146182;28;20121;-68
2022/12/01 03:29:08;;;;;;;48.33;20.55;;;7.70;99.90;;;;;;4144250;28;20397;-68
2022/12/01 03:31:15;;;;;;;49.28;21.67;;;7.70;99.90;;;;;;4148727;28;20117;-68
2022/12/01 03:33:22;;;;;;;57.08;23.08;;;7.70;99.90;;;;;;4130250;28;20054;-68
2022/12/01 03:35:30;;;;;;;50.70;20.58;;;7.80;99.90;;;;;;4144728;28;20034;-68
2022/12/01 03:37:50;;;;;;;48.20;21.77;;;7.80;99.90;;;;;;4147377;28;20034;-68
2022/12/01 03:39:56;;;;;;;56.90;21.48;;;7.80;99.90;;;;;;4148001;28;20030;-68
2022/12/01 03:42:12;;;;;;;58.15;22.40;;;7.70;99.90;;;;;;4143470;28;20034;-68
2022/12/01 03:44:21;;;;;;;51.45;22.00;;;7.80;99.90;;;;;;4142502;28;20156;-68
2022/12/01 03:46:39;;;;;;;53.15;21.38;;;7.70;99.90;;;;;;4143837;28;20065;-68
2022/12/01 03:48:41;;;;;;;56.38;22.45;;;7.60;99.90;;;;;;4148313;28;20728;-68
2022/12/01 03:50:55;;;;;;;54.78;22.25;;;7.60;99.90;;;;;;4132014;28;20414;-68
2022/12/01 03:53:13;;;;;;;48.30;20.27;;;7.60;99.90;;;;;;4146819;28;20473;-68
2022/12/01 03:55:28;;;;;;;56.00;21.67;;;7.60;99.90;;;;;;4136496;28;20080;-69
2022/12/01 03:57:37;;;;;;;45.88;19.75;;;7.40;99.90;;;;;;4148389;28;20408;-68
2022/12/01 03:59:39;;;;;;;45.17;20.02;;;7.50;99.90;;;;;;4145651;28;20480;-69
2022/12/01 04:01:40;;;;;;;46.87;19.60;;;7.60;99.90;;;;;;4147936;28;20034;-68
2022/12/01 04:03:40;;;;;;;52.45;20.08;;;7.50;99.90;;;;;;4153112;28;20048;-68
2022/12/01 04:05:41;;;;;;;47.08;19.58;;;7.60;99.90;;;;;;4154796;28;20048;-68
2022/12/01 04:07:41;;;;;;;45.17;18.95;;;7.60;99.90;;;;;;4154335;28;20033;-68
2022/12/01 04:09:42;;;;;;;47.17;19.15;;;7.70;99.90;;;;;;4152879;28;20129;-68
2022/12/01 04:14:02;;;;;;;49.20;20.70;;;7.70;99.90;;;;;;4153100;28;20046;-68
2022/12/01 04:16:03;;;;;;;52.63;21.38;;;7.60;99.90;;;;;;4153051;28;20054;-68
2022/12/01 04:18:04;;;;;;;52.13;20.42;;;7.70;99.90;;;;;;4154230;28;20080;-68
2022/12/01 04:20:06;;;;;;;46.40;19.27;;;7.70;99.90;;;;;;4147006;28;20038;-69
2022/12/01 04:22:06;;;;;;;54.25;21.35;;;7.80;99.90;;;;;;4149792;28;20029;-68
2022/12/01 04:24:07;;;;;;;48.20;20.50;;;7.80;99.90;;;;;;4152800;28;20033;-68
2022/12/01 04:26:08;;;;;;;48.60;20.63;;;7.80;99.90;;;;;;4153716;28;20045;-68
2022/12/01 04:28:08;;;;;;;48.38;21.35;;;7.80;99.90;;;;;;4149800;28;20030;-69
2022/12/01 04:30:09;;;;;;;45.55;19.77;;;7.80;99.90;;;;;;4149301;28;20056;-69
2022/12/01 04:32:12;;;;;;;47.72;20.15;;;7.80;99.90;;;;;;4152961;28;20045;-68
2022/12/01 04:34:13;;;;;;;47.10;19.63;;;7.80;99.90;;;;;;4137243;28;20026;-69
2022/12/01 04:36:13;;;;;;;46.70;20.27;;;7.80;99.90;;;;;;4153236;28;20447;-69
2022/12/01 04:38:14;;;;;;;46.75;19.65;;;7.90;99.90;;;;;;4138376;28;20081;-69
2022/12/01 04:40:15;;;;;;;48.38;20.70;;;7.90;99.90;;;;;;4153572;28;20041;-69
2022/12/01 04:42:15;;;;;;;48.40;21.42;;;7.90;99.90;;;;;;4148953;28;20037;-69
2022/12/01 04:44:16;;;;;;;43.50;19.67;;;7.90;99.90;;;;;;4156283;28;20036;-68
2022/12/01 04:46:17;;;;;;;48.63;22.38;;;7.90;99.90;;;;;;4150705;28;20095;-68
2022/12/01 04:48:18;;;;;;;48.28;22.30;;;8.00;99.90;;;;;;4152532;28;20404;-68
2022/12/01 04:50:18;;;;;;;45.75;20.77;;;8.00;99.90;;;;;;4148039;28;20034;-68
2022/12/01 04:52:19;;;;;;;43.88;19.80;;;7.90;99.90;;;;;;4157086;28;20072;-68
2022/12/01 04:54:19;;;;;;;48.10;21.13;;;7.80;99.90;;;;;;4150151;28;20161;-69
2022/12/01 04:56:20;;;;;;;39.33;18.85;;;7.70;99.90;;;;;;4144870;28;20046;-68
2022/12/01 04:58:21;;;;;;;43.83;19.83;;;7.70;99.90;;;;;;4132469;28;20055;-68
2022/12/01 05:00:21;;;;;;;46.92;19.27;;;7.70;99.90;;;;;;4150649;28;20041;-68
2022/12/01 05:02:22;;;;;;;47.80;19.70;;;7.50;99.90;;;;;;4152492;28;20033;-68
2022/12/01 05:04:23;;;;;;;44.20;20.13;;;7.50;99.90;;;;;;4152197;28;20030;-68
2022/12/01 05:06:26;;;;;;;51.45;21.20;;;7.40;99.90;;;;;;4141890;28;20465;-68
2022/12/01 05:08:27;;;;;;;50.90;21.70;;;7.30;99.90;;;;;;4156639;28;20065;-68
2022/12/01 05:10:27;;;;;;;47.83;19.80;;;7.40;99.90;;;;;;4153568;28;20037;-68
2022/12/01 05:12:28;;;;;;;41.75;17.35;;;7.30;99.90;;;;;;4155802;28;20120;-68
2022/12/01 05:14:29;;;;;;;50.38;20.55;;;7.50;99.90;;;;;;4145165;28;20129;-68
2022/12/01 05:16:31;;;;;;;49.30;21.42;;;7.30;99.90;;;;;;4150959;28;20046;-67
2022/12/01 05:18:32;;;;;;;;;;;7.30;99.90;;;;;;4148087;28;20048;-67
2022/12/01 05:22:57;;;;;;;47.08;21.05;;;7.30;99.90;;;;;;4149278;28;20046;-68
2022/12/01 05:24:57;;;;;;;52.20;20.60;;;7.20;99.90;;;;;;4152924;28;20041;-68
2022/12/01 05:26:58;;;;;;;48.60;21.23;;;7.30;99.90;;;;;;4153130;28;20037;-68
2022/12/01 05:28:59;;;;;;;52.90;20.75;;;7.30;99.90;;;;;;4148659;28;20029;-69
2022/12/01 05:30:59;;;;;;;46.00;20.40;;;7.30;99.90;;;;;;4151423;28;20030;-68
2022/12/01 05:33:00;;;;;;;44.33;20.10;;;7.30;99.90;;;;;;4143768;28;20042;-68
2022/12/01 05:35:01;;;;;;;44.53;20.90;;;7.30;99.90;;;;;;4152448;28;20476;-67
2022/12/01 05:37:01;;;;;;;40.38;18.35;;;7.30;99.90;;;;;;4152069;28;20039;-68
2022/12/01 05:39:03;;;;;;;43.75;19.60;;;7.40;99.90;;;;;;4150432;28;20034;-68
2022/12/01 05:41:04;;;;;;;45.85;21.15;;;7.50;99.90;;;;;;4146951;28;20041;-68
2022/12/01 05:43:05;;;;;;;47.42;20.67;;;7.50;99.90;;;;;;4148593;28;20034;-70
2022/12/01 05:45:07;;;;;;;50.23;21.70;;;7.50;99.90;;;;;;4150406;28;20069;-69
2022/12/01 05:47:07;;;;;;;43.17;19.90;;;7.60;99.90;;;;;;4150243;28;20033;-69
2022/12/01 05:49:08;;;;;;;52.60;22.30;;;7.60;99.90;;;;;;4147881;28;20095;-68
2022/12/01 05:51:10;;;;;;;43.97;19.15;;;7.60;99.90;;;;;;4144055;28;20041;-68
2022/12/01 05:53:12;;;;;;;37.80;18.25;;;7.60;99.90;;;;;;4156658;28;20081;-68
2022/12/01 05:55:13;;;;;;;41.20;19.35;;;7.60;99.90;;;;;;4128222;28;20030;-68
2022/12/01 05:57:13;;;;;;;37.75;17.85;;;7.60;99.90;;;;;;4142123;28;20049;-69
2022/12/01 05:59:14;;;;;;;35.00;16.98;;;7.60;99.90;;;;;;4151793;28;20132;-68
2022/12/01 06:01:14;;;;;;;39.42;16.90;;;7.70;99.90;;;;;;4147542;28;20034;-68
2022/12/01 06:03:15;;;;;;;35.42;16.33;;;7.60;99.90;;;;;;4143656;28;20057;-69
2022/12/01 06:05:15;;;;;;;41.80;17.92;;;7.70;99.90;;;;;;4147679;28;20095;-68
2022/12/01 06:07:18;;;;;;;35.97;16.30;;;7.70;99.90;;;;;;4148757;28;20500;-69
2022/12/01 06:09:19;;;;;;;36.53;18.10;;;7.70;99.90;;;;;;4131745;28;20041;-69
2022/12/01 06:11:20;;;;;;;36.63;17.40;;;7.70;99.90;;;;;;4141625;28;20395;-69
2022/12/01 06:13:20;;;;;;;36.78;17.13;;;7.70;99.90;;;;;;4144102;28;20460;-69
2022/12/01 06:15:21;;;;;;;42.85;18.17;;;7.70;99.90;;;;;;4141368;28;20116;-69
2022/12/01 06:17:22;;;;;;;42.67;18.67;;;7.80;99.90;;;;;;4144430;28;20030;-69
2022/12/01 06:19:22;;;;;;;46.80;19.35;;;7.80;99.90;;;;;;4141676;28;20091;-69
2022/12/01 06:21:23;;;;;;;43.05;18.38;;;7.80;99.90;;;;;;4142038;28;20795;-69
2022/12/01 06:23:23;;;;;;;42.85;19.13;;;7.80;99.90;;;;;;4141801;28;20704;-68
2022/12/01 06:25:24;;;;;;;37.03;17.08;;;7.70;99.90;;;;;;4140131;28;20095;-69
2022/12/01 06:27:25;;;;;;;43.75;19.33;;;7.80;99.90;;;;;;4147690;28;20424;-69
2022/12/01 06:29:25;;;;;;;45.35;18.92;;;7.80;99.90;;;;;;4126716;28;20058;-68
2022/12/01 06:31:26;;;;;;;41.78;18.90;;;7.80;99.90;;;;;;4130288;28;20041;-68
2022/12/01 06:33:27;;;;;;;43.45;19.65;;;7.70;99.90;;;;;;4127989;28;21642;-68
2022/12/01 06:35:27;;;;;;;44.95;18.48;;;7.70;99.90;;;;;;4144613;28;20048;-68
2022/12/01 06:37:28;;;;;;;49.08;20.27;;;7.70;99.90;;;;;;4142276;28;20056;-69
2022/12/01 06:39:29;;;;;;;46.97;19.27;;;7.70;99.90;;;;;;4145217;28;20046;-68
2022/12/01 06:41:30;;;;;;;42.45;17.60;;;7.70;99.90;;;;;;4143184;28;20036;-68
2022/12/01 06:43:34;;;;;;;43.10;18.40;;;7.70;99.90;;;;;;4143048;28;20042;-68
2022/12/01 06:45:35;;;;;;;43.08;18.10;;;7.80;99.90;;;;;;4129260;28;20042;-68
2022/12/01 06:47:35;;;;;;;36.42;17.15;;;7.70;99.90;;;;;;4147715;28;20060;-68
2022/12/01 06:49:37;;;;;;;41.30;16.40;;;7.70;99.90;;;;;;4148653;28;20052;-68
2022/12/01 06:51:38;;;;;;;48.75;19.70;;;7.80;99.90;;;;;;4148599;28;20042;-69
2022/12/01 06:53:38;;;;;;;43.03;17.45;;;7.80;99.90;;;;;;4145431;28;20419;-69
2022/12/01 06:55:39;;;;;;;53.08;21.38;;;7.80;99.90;;;;;;4145825;28;20066;-69
2022/12/01 06:57:40;;;;;;;51.90;21.70;;;7.80;99.90;;;;;;4145502;28;20038;-69
2022/12/01 06:59:40;;;;;;;49.53;20.13;;;7.90;99.90;;;;;;4144199;28;20392;-69
2022/12/01 07:01:41;;;;;;;52.47;21.35;;;7.90;99.90;;;;;;4145319;28;20387;-68
2022/12/01 07:03:42;;;;;;;56.55;22.48;;;7.80;99.90;;;;;;4148276;28;20820;-68
2022/12/01 07:05:42;;;;;;;46.75;20.70;;;7.70;99.90;;;;;;4142617;28;20396;-68
2022/12/01 07:07:43;;;;;;;52.17;21.90;;;7.80;99.90;;;;;;4146690;28;20080;-69
2022/12/01 07:09:43;;;;;;;53.55;21.27;;;7.70;99.90;;;;;;4142316;28;20068;-68
2022/12/01 07:11:44;;;;;;;58.95;22.95;;;7.80;99.90;;;;;;4148769;28;20088;-68
2022/12/01 07:13:45;;;;;;;52.00;21.08;;;7.80;99.90;;;;;;4145490;28;20530;-68
2022/12/01 07:15:45;;;;;;;49.83;20.98;;;7.70;99.90;;;;;;4148285;28;20093;-69
2022/12/01 07:17:46;;;;;;;50.85;20.42;;;7.70;99.90;;;;;;4147224;28;20081;-69
2022/12/01 07:19:46;;;;;;;51.08;22.85;;;7.70;99.90;;;;;;4148801;28;20041;-69
2022/12/01 07:21:47;;;;;;;51.50;21.83;;;7.70;99.90;;;;;;4152476;28;20502;-69
2022/12/01 07:23:48;;;;;;;55.13;22.42;;;7.70;99.90;;;;;;4151011;28;20053;-68
2022/12/01 07:26:00;;;;;;;48.50;20.58;;;7.70;99.90;;;;;;4152099;28;20044;-68
2022/12/01 07:28:01;;;;;;;54.25;21.73;;;7.80;99.90;;;;;;4147685;28;20030;-69
2022/12/01 07:30:02;;;;;;;54.85;22.77;;;7.70;99.90;;;;;;4152342;28;20558;-68
2022/12/01 07:32:02;;;;;;;47.05;21.00;;;7.80;99.90;;;;;;4148734;28;20059;-68
2022/12/01 07:34:03;;;;;;;53.08;21.58;;;7.80;99.90;;;;;;4149776;28;20030;-68
2022/12/01 07:36:05;;;;;;;45.90;20.52;;;7.80;99.90;;;;;;4147196;28;20116;-69
2022/12/01 07:38:06;;;;;;;55.30;23.63;;;7.90;99.90;;;;;;4147359;28;20038;-69
2022/12/01 07:40:07;;;;;;;58.65;22.70;;;7.80;99.90;;;;;;4147193;28;20042;-70
2022/12/01 07:42:07;;;;;;;50.25;21.45;;;7.80;99.90;;;;;;4145685;28;20029;-68
2022/12/01 07:44:11;;;;;;;49.78;20.35;;;7.70;99.90;;;;;;4150858;28;20056;-68
2022/12/01 07:46:13;;;;;;;54.00;21.50;;;7.80;99.90;;;;;;4147192;28;20037;-68
2022/12/01 07:48:14;;;;;;;47.35;20.88;;;7.80;99.90;;;;;;4148305;28;20029;-68
2022/12/01 07:50:15;;;;;;;55.53;22.20;;;7.80;99.90;;;;;;4146111;28;20049;-68
2022/12/01 07:52:15;;;;;;;50.25;22.17;;;7.90;99.90;;;;;;4146068;28;20076;-68
2022/12/01 07:54:18;;;;;;;53.25;21.52;;;7.90;99.90;;;;;;4146879;28;20053;-68
2022/12/01 07:56:20;;;;;;;52.50;21.17;;;7.90;99.90;;;;;;4140889;28;20050;-68
2022/12/01 07:58:21;;;;;;;50.03;19.73;;;7.90;99.90;;;;;;4147762;28;20064;-69
2022/12/01 08:00:22;;;;;;;46.22;20.80;;;7.90;99.90;;;;;;4147530;28;20269;-69
2022/12/01 08:02:22;;;;;;;49.13;20.42;;;7.90;99.90;;;;;;4151983;28;20144;-68
2022/12/01 08:04:23;;;;;;;47.10;21.15;;;7.90;99.90;;;;;;4149518;28;20041;-69
2022/12/01 08:06:25;;;;;;;49.67;21.27;;;7.90;99.90;;;;;;4152877;28;20038;-68
2022/12/01 08:08:26;;;;;;;49.00;21.13;;;7.90;99.90;;;;;;4150280;28;20112;-68
2022/12/01 08:10:26;;;;;;;55.90;23.77;;;8.00;99.90;;;;;;4149031;28;21833;-67
2022/12/01 08:12:27;;;;;;;53.67;22.52;;;8.00;99.90;;;;;;4140467;28;20057;-68
2022/12/01 08:14:27;;;;;;;53.85;22.92;;;7.90;99.90;;;;;;4146397;28;20054;-68
2022/12/01 08:16:29;;;;;;;60.05;23.08;;;7.90;99.90;;;;;;4144773;28;20068;-68
2022/12/01 08:18:30;;;;;;;60.63;24.60;;;7.90;99.90;;;;;;4151295;28;20045;-69
2022/12/01 08:20:30;;;;;;;58.13;24.98;;;8.00;99.90;;;;;;4148909;28;20044;-69
2022/12/01 08:22:31;;;;;;;54.17;23.92;;;7.80;99.90;;;;;;4150601;28;20042;-69
2022/12/01 08:24:32;;;;;;;56.45;23.80;;;7.80;99.90;;;;;;4147594;28;20045;-69
2022/12/01 08:26:32;;;;;;;51.30;21.85;;;7.90;99.90;;;;;;4147672;28;20037;-68
2022/12/01 08:28:36;;;;;;;50.85;22.85;;;7.90;99.90;;;;;;4148807;28;20038;-69
2022/12/01 08:30:37;;;;;;;55.15;22.90;;;7.90;99.90;;;;;;4145414;28;20041;-69
2022/12/01 08:32:37;;;;;;;48.65;21.63;;;7.90;99.90;;;;;;4147719;28;20669;-69
2022/12/01 08:34:39;;;;;;;54.28;22.65;;;7.90;99.90;;;;;;4146914;28;20110;-68
2022/12/01 08:36:40;;;;;;;62.15;26.15;;;8.00;99.90;;;;;;4148936;28;20041;-68
2022/12/01 08:38:45;;;;;;;61.65;25.67;;;7.90;99.90;;;;;;4147593;28;20028;-68
2022/12/01 08:40:45;;;;;;;61.88;26.08;;;7.90;99.90;;;;;;4132243;28;20045;-68
2022/12/01 08:42:46;;;;;;;67.40;27.23;;;8.00;99.90;;;;;;4145560;28;20057;-69
2022/12/01 08:44:47;;;;;;;60.80;26.02;;;7.90;99.90;;;;;;4150656;28;20030;-68
2022/12/01 08:46:47;;;;;;;64.28;26.23;;;8.00;99.90;;;;;;4149899;28;20530;-68
2022/12/01 08:48:48;;;;;;;77.35;29.98;;;8.00;99.90;;;;;;4146442;28;20044;-68
2022/12/01 08:50:48;;;;;;;67.55;27.52;;;7.90;99.90;;;;;;4146339;28;20052;-68
2022/12/01 08:52:49;;;;;;;63.75;27.67;;;8.00;99.90;;;;;;4147821;28;20109;-68
2022/12/01 08:54:50;;;;;;;62.22;25.85;;;7.90;99.90;;;;;;4148881;28;20046;-68
2022/12/01 08:56:50;;;;;;;66.25;27.13;;;7.90;99.90;;;;;;4148414;28;20048;-68
2022/12/01 08:58:52;;;;;;;63.78;26.88;;;7.90;99.90;;;;;;4148128;28;20172;-68
2022/12/01 09:00:52;;;;;;;70.50;28.77;;;8.00;99.90;;;;;;4149164;28;20511;-68
2022/12/01 09:02:53;;;;;;;62.97;25.50;;;7.90;99.90;;;;;;4144160;28;20049;-67
2022/12/01 09:04:54;;;;;;;66.72;27.27;;;7.90;99.90;;;;;;4147935;28;20042;-68
2022/12/01 09:06:56;;;;;;;71.15;28.42;;;8.00;99.90;;;;;;4147094;28;20048;-68
2022/12/01 09:09:00;;;;;;;64.13;27.88;;;8.00;99.90;;;;;;4132519;28;20065;-68
2022/12/01 09:11:04;;;;;;;75.93;30.50;;;8.00;99.90;;;;;;4151227;28;20112;-69
2022/12/01 09:13:05;;;;;;;67.10;27.88;;;8.00;99.90;;;;;;4144354;28;20187;-69
2022/12/01 09:15:06;;;;;;;75.75;29.63;;;8.00;99.90;;;;;;4143051;28;20045;-68
2022/12/01 09:17:08;;;;;;;61.25;27.60;;;8.00;99.90;;;;;;4145514;28;20077;-69
2022/12/01 09:19:09;;;;;;;68.75;28.05;;;8.00;99.90;;;;;;4146290;28;20128;-68
2022/12/01 09:21:14;;;;;;;62.38;27.50;;;8.00;99.90;;;;;;4146555;28;20053;-68
2022/12/01 09:23:15;;;;;;;55.65;25.85;;;8.00;99.90;;;;;;4150378;28;20077;-68
2022/12/01 09:25:16;;;;;;;57.97;25.20;;;8.00;99.90;;;;;;4147031;28;20045;-68
2022/12/01 09:27:16;;;;;;;59.75;25.67;;;8.00;99.90;;;;;;4150715;28;20040;-68
2022/12/01 09:29:17;;;;;;;64.32;27.60;;;8.00;99.90;;;;;;4129160;28;20035;-68
2022/12/01 09:31:19;;;;;;;57.38;24.92;;;8.00;99.90;;;;;;4149476;28;20108;-68
2022/12/01 09:33:20;;;;;;;58.45;26.55;;;8.00;99.90;;;;;;4149030;28;20046;-68
2022/12/01 09:35:20;;;;;;;59.95;26.33;;;8.00;99.90;;;;;;4147094;28;20457;-69
2022/12/01 09:37:21;;;;;;;54.63;26.27;;;8.00;99.90;;;;;;4148161;28;20060;-69
2022/12/01 09:39:21;;;;;;;55.58;24.27;;;8.00;99.90;;;;;;4149589;28;20038;-68
2022/12/01 09:41:37;;;;;;;54.92;25.25;;;8.10;99.90;;;;;;4145771;28;20045;-68
2022/12/01 09:43:47;;;;;;;58.40;24.85;;;8.00;99.90;;;;;;4145881;28;20077;-69
2022/12/01 09:45:55;;;;;;;51.53;24.63;;;8.00;99.90;;;;;;4144704;28;20520;-69
2022/12/01 09:47:59;;;;;;;53.00;25.45;;;8.00;99.90;;;;;;4151632;28;20160;-69
2022/12/01 09:50:09;;;;;;;51.05;23.23;;;8.00;99.90;;;;;;4131662;28;20042;-68
2022/12/01 09:52:12;;;;;;;59.55;25.40;;;8.00;99.90;;;;;;4146065;28;20447;-69
2022/12/01 09:54:13;;;;;;;55.30;25.90;;;8.00;99.90;;;;;;4149538;28;20033;-69
2022/12/01 09:56:22;;;;;;;55.53;25.25;;;8.00;99.90;;;;;;4127870;28;20160;-69
2022/12/01 09:58:29;;;;;;;56.40;24.30;;;8.00;99.90;;;;;;4148034;28;20519;-69
2022/12/01 10:00:39;;;;;;;53.25;24.92;;;8.00;99.90;;;;;;4146149;28;20034;-68
2022/12/01 10:03:02;;;;;;;52.17;24.98;;;8.00;99.90;;;;;;4144599;28;20157;-69
2022/12/01 10:05:10;;;;;;;56.50;25.13;;;8.00;99.90;;;;;;4126334;28;20038;-69
2022/12/01 10:07:23;;;;;;;52.55;24.30;;;7.90;99.90;;;;;;4149426;28;20029;-69
2022/12/01 10:09:50;;;;;;;45.38;21.98;;;7.90;99.90;;;;;;4146682;28;20041;-68
2022/12/01 10:11:55;;;;;;;44.85;20.92;;;8.00;99.90;;;;;;4142997;28;20046;-68
2022/12/01 10:13:58;;;;;;;47.85;23.35;;;7.90;99.90;;;;;;4145265;28;20417;-69
2022/12/01 10:16:17;;;;;;;53.40;24.27;;;7.90;99.90;;;;;;4128824;28;20136;-68
2022/12/01 10:18:26;;;;;;;48.45;22.67;;;7.90;99.90;;;;;;4144303;28;20034;-68
2022/12/01 10:20:47;;;;;;;48.28;23.02;;;7.90;99.90;;;;;;4147080;28;20041;-68
2022/12/01 10:23:04;;;;;;;47.55;21.67;;;8.00;99.90;;;;;;4146760;28;20049;-68
2022/12/01 10:25:22;;;;;;;50.97;23.15;;;8.00;99.90;;;;;;4145337;28;20045;-69
2022/12/01 10:27:26;;;;;;;45.50;21.40;;;8.00;99.90;;;;;;4145426;28;20054;-68
2022/12/01 10:29:51;;;;;;;46.80;21.65;;;8.00;99.90;;;;;;4145162;28;20124;-68
2022/12/01 10:31:56;;;;;;;42.80;20.90;;;8.00;99.90;;;;;;4142506;28;20034;-68
2022/12/01 10:34:06;;;;;;;41.97;19.52;;;7.90;99.90;;;;;;4128707;28;20566;-68
2022/12/01 10:36:09;;;;;;;39.63;18.75;;;8.00;99.90;;;;;;4145714;28;20042;-68
2022/12/01 10:38:23;;;;;;;42.45;20.40;;;8.00;99.90;;;;;;4142804;28;20041;-69
2022/12/01 10:40:25;;;;;;;43.92;21.08;;;8.00;99.90;;;;;;4145114;28;20038;-68
2022/12/01 10:42:40;;;;;;;46.50;20.77;;;7.80;99.90;;;;;;4145000;28;20128;-68
2022/12/01 10:44:41;;;;;;;44.63;20.35;;;7.70;99.90;;;;;;4143178;28;20507;-68
2022/12/01 10:46:54;;;;;;;42.00;19.63;;;7.70;99.90;;;;;;4142024;28;20700;-68